sensor_id;sensor_type;location;lat;lon;timestamp;P1;durP1;ratioP1;P2;durP2;ratioP2
48963;SDS011;34776;48.180;16.420;2023-04-24T00:00:32;6.45;;;4.90;;
48963;SDS011;34776;48.180;16.420;2023-04-24T00:02:57;6.30;;;4.45;;
48963;SDS011;34776;48.180;16.420;2023-04-24T00:05:23;4.47;;;4.03;;
48963;SDS011;34776;48.180;16.420;2023-04-24T00:07:49;6.88;;;4.50;;
48963;SDS011;34776;48.180;16.420;2023-04-24T00:10:17;4.40;;;3.55;;
48963;SDS011;34776;48.180;16.420;2023-04-24T00:12:43;6.07;;;3.97;;
48963;SDS011;34776;48.180;16.420;2023-04-24T00:15:08;3.88;;;3.38;;
48963;SDS011;34776;48.180;16.420;2023-04-24T00:17:34;4.90;;;3.95;;
48963;SDS011;34776;48.180;16.420;2023-04-24T00:20:00;5.78;;;3.92;;
48963;SDS011;34776;48.180;16.420;2023-04-24T00:22:27;6.78;;;3.72;;
48963;SDS011;34776;48.180;16.420;2023-04-24T00:24:53;4.40;;;4.00;;
48963;SDS011;34776;48.180;16.420;2023-04-24T00:27:19;4.70;;;4.15;;
48963;SDS011;34776;48.180;16.420;2023-04-24T00:29:44;5.15;;;3.83;;
48963;SDS011;34776;48.180;16.420;2023-04-24T00:32:10;4.95;;;3.95;;
48963;SDS011;34776;48.180;16.420;2023-04-24T00:34:35;5.75;;;4.45;;
48963;SDS011;34776;48.180;16.420;2023-04-24T00:37:01;5.10;;;4.38;;
48963;SDS011;34776;48.180;16.420;2023-04-24T00:39:26;4.97;;;4.15;;
48963;SDS011;34776;48.180;16.420;2023-04-24T00:41:51;5.97;;;4.47;;
48963;SDS011;34776;48.180;16.420;2023-04-24T00:44:18;4.50;;;4.10;;
48963;SDS011;34776;48.180;16.420;2023-04-24T00:46:43;4.68;;;4.10;;
48963;SDS011;34776;48.180;16.420;2023-04-24T00:49:09;4.57;;;4.18;;
48963;SDS011;34776;48.180;16.420;2023-04-24T00:51:34;5.78;;;4.47;;
48963;SDS011;34776;48.180;16.420;2023-04-24T00:54:01;4.72;;;4.20;;
48963;SDS011;34776;48.180;16.420;2023-04-24T00:56:27;4.97;;;4.25;;
48963;SDS011;34776;48.180;16.420;2023-04-24T00:58:52;6.93;;;4.45;;
48963;SDS011;34776;48.180;16.420;2023-04-24T01:01:21;6.90;;;4.07;;
48963;SDS011;34776;48.180;16.420;2023-04-24T01:03:48;4.82;;;4.40;;
48963;SDS011;34776;48.180;16.420;2023-04-24T01:06:16;4.47;;;4.05;;
48963;SDS011;34776;48.180;16.420;2023-04-24T01:08:42;7.90;;;4.40;;
48963;SDS011;34776;48.180;16.420;2023-04-24T01:11:09;5.47;;;4.50;;
48963;SDS011;34776;48.180;16.420;2023-04-24T01:13:35;4.95;;;4.25;;
48963;SDS011;34776;48.180;16.420;2023-04-24T01:16:00;5.47;;;4.47;;
48963;SDS011;34776;48.180;16.420;2023-04-24T01:18:26;7.00;;;4.15;;
48963;SDS011;34776;48.180;16.420;2023-04-24T01:20:53;5.20;;;3.88;;
48963;SDS011;34776;48.180;16.420;2023-04-24T01:23:21;5.22;;;4.15;;
48963;SDS011;34776;48.180;16.420;2023-04-24T01:25:47;4.63;;;3.83;;
48963;SDS011;34776;48.180;16.420;2023-04-24T01:28:13;4.63;;;3.83;;
48963;SDS011;34776;48.180;16.420;2023-04-24T01:30:39;6.35;;;4.22;;
48963;SDS011;34776;48.180;16.420;2023-04-24T01:33:05;8.18;;;4.25;;
48963;SDS011;34776;48.180;16.420;2023-04-24T01:35:30;4.90;;;4.10;;
48963;SDS011;34776;48.180;16.420;2023-04-24T01:37:56;5.93;;;4.32;;
48963;SDS011;34776;48.180;16.420;2023-04-24T01:40:22;4.40;;;4.00;;
48963;SDS011;34776;48.180;16.420;2023-04-24T01:42:47;5.18;;;3.97;;
48963;SDS011;34776;48.180;16.420;2023-04-24T01:45:13;5.05;;;4.40;;
48963;SDS011;34776;48.180;16.420;2023-04-24T01:47:38;6.50;;;4.93;;
48963;SDS011;34776;48.180;16.420;2023-04-24T01:50:04;5.85;;;4.72;;
48963;SDS011;34776;48.180;16.420;2023-04-24T01:52:30;5.45;;;4.70;;
48963;SDS011;34776;48.180;16.420;2023-04-24T01:54:59;9.18;;;4.60;;
48963;SDS011;34776;48.180;16.420;2023-04-24T01:57:25;5.75;;;4.78;;
48963;SDS011;34776;48.180;16.420;2023-04-24T01:59:51;6.50;;;4.57;;
48963;SDS011;34776;48.180;16.420;2023-04-24T02:02:16;4.90;;;4.43;;
48963;SDS011;34776;48.180;16.420;2023-04-24T02:04:42;5.88;;;4.35;;
48963;SDS011;34776;48.180;16.420;2023-04-24T02:07:08;5.10;;;4.60;;
48963;SDS011;34776;48.180;16.420;2023-04-24T02:09:33;5.20;;;4.70;;
48963;SDS011;34776;48.180;16.420;2023-04-24T02:11:58;5.68;;;5.07;;
48963;SDS011;34776;48.180;16.420;2023-04-24T02:14:24;7.03;;;5.45;;
48963;SDS011;34776;48.180;16.420;2023-04-24T02:16:49;8.13;;;5.72;;
48963;SDS011;34776;48.180;16.420;2023-04-24T02:19:14;5.57;;;4.75;;
48963;SDS011;34776;48.180;16.420;2023-04-24T02:21:40;7.78;;;5.30;;
48963;SDS011;34776;48.180;16.420;2023-04-24T02:24:05;6.28;;;4.70;;
48963;SDS011;34776;48.180;16.420;2023-04-24T02:26:31;6.70;;;4.63;;
48963;SDS011;34776;48.180;16.420;2023-04-24T02:28:56;5.43;;;4.47;;
48963;SDS011;34776;48.180;16.420;2023-04-24T02:31:22;5.13;;;4.15;;
48963;SDS011;34776;48.180;16.420;2023-04-24T02:33:47;7.57;;;4.10;;
48963;SDS011;34776;48.180;16.420;2023-04-24T02:36:13;6.07;;;4.25;;
48963;SDS011;34776;48.180;16.420;2023-04-24T02:38:39;4.40;;;3.65;;
48963;SDS011;34776;48.180;16.420;2023-04-24T02:41:04;4.43;;;3.75;;
48963;SDS011;34776;48.180;16.420;2023-04-24T02:43:31;5.22;;;3.60;;
48963;SDS011;34776;48.180;16.420;2023-04-24T02:45:57;3.50;;;3.20;;
48963;SDS011;34776;48.180;16.420;2023-04-24T02:48:23;4.75;;;3.47;;
48963;SDS011;34776;48.180;16.420;2023-04-24T02:50:48;3.92;;;3.28;;
48963;SDS011;34776;48.180;16.420;2023-04-24T02:53:15;4.60;;;3.40;;
48963;SDS011;34776;48.180;16.420;2023-04-24T02:55:40;4.63;;;3.10;;
48963;SDS011;34776;48.180;16.420;2023-04-24T02:58:06;3.60;;;2.92;;
48963;SDS011;34776;48.180;16.420;2023-04-24T03:00:31;5.13;;;2.95;;
48963;SDS011;34776;48.180;16.420;2023-04-24T03:02:57;4.20;;;3.20;;
48963;SDS011;34776;48.180;16.420;2023-04-24T03:05:22;3.70;;;3.35;;
48963;SDS011;34776;48.180;16.420;2023-04-24T03:07:47;3.10;;;2.80;;
48963;SDS011;34776;48.180;16.420;2023-04-24T03:10:13;3.28;;;2.92;;
48963;SDS011;34776;48.180;16.420;2023-04-24T03:12:38;4.72;;;3.17;;
48963;SDS011;34776;48.180;16.420;2023-04-24T03:15:03;4.55;;;3.60;;
48963;SDS011;34776;48.180;16.420;2023-04-24T03:17:29;3.72;;;3.22;;
48963;SDS011;34776;48.180;16.420;2023-04-24T03:19:55;3.90;;;3.00;;
48963;SDS011;34776;48.180;16.420;2023-04-24T03:22:20;4.50;;;3.67;;
48963;SDS011;34776;48.180;16.420;2023-04-24T03:24:45;4.60;;;3.25;;
48963;SDS011;34776;48.180;16.420;2023-04-24T03:27:12;3.75;;;3.20;;
48963;SDS011;34776;48.180;16.420;2023-04-24T03:29:37;3.30;;;2.85;;
48963;SDS011;34776;48.180;16.420;2023-04-24T03:32:03;4.25;;;3.10;;
48963;SDS011;34776;48.180;16.420;2023-04-24T03:34:28;4.07;;;2.72;;
48963;SDS011;34776;48.180;16.420;2023-04-24T03:36:53;4.55;;;2.90;;
48963;SDS011;34776;48.180;16.420;2023-04-24T03:39:19;4.15;;;3.00;;
48963;SDS011;34776;48.180;16.420;2023-04-24T03:41:44;6.30;;;3.20;;
48963;SDS011;34776;48.180;16.420;2023-04-24T03:44:09;3.17;;;2.88;;
48963;SDS011;34776;48.180;16.420;2023-04-24T03:46:34;3.60;;;3.30;;
48963;SDS011;34776;48.180;16.420;2023-04-24T03:49:00;4.30;;;3.35;;
48963;SDS011;34776;48.180;16.420;2023-04-24T03:51:25;4.38;;;3.40;;
48963;SDS011;34776;48.180;16.420;2023-04-24T03:53:52;5.32;;;3.20;;
48963;SDS011;34776;48.180;16.420;2023-04-24T03:56:18;4.40;;;3.35;;
48963;SDS011;34776;48.180;16.420;2023-04-24T03:58:43;3.50;;;3.17;;
48963;SDS011;34776;48.180;16.420;2023-04-24T04:01:09;4.75;;;3.38;;
48963;SDS011;34776;48.180;16.420;2023-04-24T04:03:35;5.53;;;3.58;;
48963;SDS011;34776;48.180;16.420;2023-04-24T04:06:00;6.40;;;3.50;;
48963;SDS011;34776;48.180;16.420;2023-04-24T04:08:26;4.50;;;3.15;;
48963;SDS011;34776;48.180;16.420;2023-04-24T04:10:51;5.00;;;3.28;;
48963;SDS011;34776;48.180;16.420;2023-04-24T04:13:16;5.07;;;3.40;;
48963;SDS011;34776;48.180;16.420;2023-04-24T04:15:42;5.00;;;3.53;;
48963;SDS011;34776;48.180;16.420;2023-04-24T04:18:07;6.60;;;3.25;;
48963;SDS011;34776;48.180;16.420;2023-04-24T04:20:33;5.68;;;3.22;;
48963;SDS011;34776;48.180;16.420;2023-04-24T04:22:58;6.25;;;3.47;;
48963;SDS011;34776;48.180;16.420;2023-04-24T04:25:24;5.30;;;3.17;;
48963;SDS011;34776;48.180;16.420;2023-04-24T04:27:49;3.50;;;2.80;;
48963;SDS011;34776;48.180;16.420;2023-04-24T04:30:16;6.43;;;3.10;;
48963;SDS011;34776;48.180;16.420;2023-04-24T04:32:41;5.95;;;5.35;;
48963;SDS011;34776;48.180;16.420;2023-04-24T04:35:06;3.97;;;3.58;;
48963;SDS011;34776;48.180;16.420;2023-04-24T04:37:32;5.72;;;4.82;;
48963;SDS011;34776;48.180;16.420;2023-04-24T04:39:58;7.75;;;3.80;;
48963;SDS011;34776;48.180;16.420;2023-04-24T04:42:24;3.53;;;3.22;;
48963;SDS011;34776;48.180;16.420;2023-04-24T04:47:25;3.13;;;2.80;;
48963;SDS011;34776;48.180;16.420;2023-04-24T04:49:51;3.53;;;2.95;;
48963;SDS011;34776;48.180;16.420;2023-04-24T04:52:17;4.47;;;2.90;;
48963;SDS011;34776;48.180;16.420;2023-04-24T04:54:43;3.35;;;3.05;;
48963;SDS011;34776;48.180;16.420;2023-04-24T04:59:38;3.60;;;3.00;;
48963;SDS011;34776;48.180;16.420;2023-04-24T05:02:03;3.25;;;2.95;;
48963;SDS011;34776;48.180;16.420;2023-04-24T05:04:29;4.43;;;3.00;;
48963;SDS011;34776;48.180;16.420;2023-04-24T05:06:55;3.25;;;2.92;;
48963;SDS011;34776;48.180;16.420;2023-04-24T05:09:21;5.03;;;3.30;;
48963;SDS011;34776;48.180;16.420;2023-04-24T05:11:46;3.00;;;2.70;;
48963;SDS011;34776;48.180;16.420;2023-04-24T05:14:12;4.47;;;3.25;;
48963;SDS011;34776;48.180;16.420;2023-04-24T05:16:37;3.53;;;2.97;;
48963;SDS011;34776;48.180;16.420;2023-04-24T05:19:03;5.50;;;3.00;;
48963;SDS011;34776;48.180;16.420;2023-04-24T05:21:29;4.25;;;3.00;;
48963;SDS011;34776;48.180;16.420;2023-04-24T05:23:55;4.85;;;3.10;;
48963;SDS011;34776;48.180;16.420;2023-04-24T05:26:21;3.95;;;2.90;;
48963;SDS011;34776;48.180;16.420;2023-04-24T05:28:47;4.45;;;2.65;;
48963;SDS011;34776;48.180;16.420;2023-04-24T05:31:12;14.45;;;3.90;;
48963;SDS011;34776;48.180;16.420;2023-04-24T05:33:38;12.40;;;5.18;;
48963;SDS011;34776;48.180;16.420;2023-04-24T05:36:03;6.38;;;3.88;;
48963;SDS011;34776;48.180;16.420;2023-04-24T05:38:30;5.13;;;3.17;;
48963;SDS011;34776;48.180;16.420;2023-04-24T05:40:55;6.57;;;3.03;;
48963;SDS011;34776;48.180;16.420;2023-04-24T05:43:21;4.63;;;3.13;;
48963;SDS011;34776;48.180;16.420;2023-04-24T05:45:46;3.85;;;2.90;;
48963;SDS011;34776;48.180;16.420;2023-04-24T05:48:12;5.05;;;3.10;;
48963;SDS011;34776;48.180;16.420;2023-04-24T05:50:37;27.40;;;4.10;;
48963;SDS011;34776;48.180;16.420;2023-04-24T05:53:02;5.10;;;2.63;;
48963;SDS011;34776;48.180;16.420;2023-04-24T05:55:29;3.95;;;2.67;;
48963;SDS011;34776;48.180;16.420;2023-04-24T05:57:56;4.40;;;2.58;;
48963;SDS011;34776;48.180;16.420;2023-04-24T06:00:21;4.35;;;2.53;;
48963;SDS011;34776;48.180;16.420;2023-04-24T06:02:46;3.05;;;2.65;;
48963;SDS011;34776;48.180;16.420;2023-04-24T06:05:12;3.58;;;2.65;;
48963;SDS011;34776;48.180;16.420;2023-04-24T06:07:37;3.13;;;2.30;;
48963;SDS011;34776;48.180;16.420;2023-04-24T06:10:02;7.53;;;5.47;;
48963;SDS011;34776;48.180;16.420;2023-04-24T06:12:28;4.15;;;2.90;;
48963;SDS011;34776;48.180;16.420;2023-04-24T06:14:53;6.25;;;2.38;;
48963;SDS011;34776;48.180;16.420;2023-04-24T06:17:20;2.92;;;2.33;;
48963;SDS011;34776;48.180;16.420;2023-04-24T06:19:46;3.45;;;2.50;;
48963;SDS011;34776;48.180;16.420;2023-04-24T06:22:11;2.60;;;2.10;;
48963;SDS011;34776;48.180;16.420;2023-04-24T06:24:36;4.18;;;2.97;;
48963;SDS011;34776;48.180;16.420;2023-04-24T06:27:02;2.67;;;2.45;;
48963;SDS011;34776;48.180;16.420;2023-04-24T06:29:27;5.68;;;2.92;;
48963;SDS011;34776;48.180;16.420;2023-04-24T06:31:52;3.72;;;2.28;;
48963;SDS011;34776;48.180;16.420;2023-04-24T06:34:18;2.38;;;2.17;;
48963;SDS011;34776;48.180;16.420;2023-04-24T06:36:43;3.63;;;2.10;;
48963;SDS011;34776;48.180;16.420;2023-04-24T06:39:09;2.38;;;1.98;;
48963;SDS011;34776;48.180;16.420;2023-04-24T06:41:34;4.25;;;2.28;;
48963;SDS011;34776;48.180;16.420;2023-04-24T06:44:00;3.25;;;2.60;;
48963;SDS011;34776;48.180;16.420;2023-04-24T06:46:25;2.72;;;2.05;;
48963;SDS011;34776;48.180;16.420;2023-04-24T06:48:52;4.57;;;2.55;;
48963;SDS011;34776;48.180;16.420;2023-04-24T06:51:24;3.00;;;2.50;;
48963;SDS011;34776;48.180;16.420;2023-04-24T06:53:52;2.40;;;2.20;;
48963;SDS011;34776;48.180;16.420;2023-04-24T06:56:18;2.53;;;2.22;;
48963;SDS011;34776;48.180;16.420;2023-04-24T06:58:45;13.90;;;2.08;;
48963;SDS011;34776;48.180;16.420;2023-04-24T07:01:10;1.90;;;1.80;;
48963;SDS011;34776;48.180;16.420;2023-04-24T07:03:36;3.53;;;2.15;;
48963;SDS011;34776;48.180;16.420;2023-04-24T07:06:01;2.67;;;2.20;;
48963;SDS011;34776;48.180;16.420;2023-04-24T07:08:28;5.47;;;2.97;;
48963;SDS011;34776;48.180;16.420;2023-04-24T07:10:55;7.75;;;5.90;;
48963;SDS011;34776;48.180;16.420;2023-04-24T07:13:21;4.32;;;2.40;;
48963;SDS011;34776;48.180;16.420;2023-04-24T07:15:46;4.32;;;1.98;;
48963;SDS011;34776;48.180;16.420;2023-04-24T07:18:15;2.00;;;1.65;;
48963;SDS011;34776;48.180;16.420;2023-04-24T07:20:40;3.35;;;2.10;;
48963;SDS011;34776;48.180;16.420;2023-04-24T07:23:06;2.80;;;2.40;;
48963;SDS011;34776;48.180;16.420;2023-04-24T07:25:31;3.97;;;1.90;;
48963;SDS011;34776;48.180;16.420;2023-04-24T07:27:57;4.32;;;2.13;;
48963;SDS011;34776;48.180;16.420;2023-04-24T07:30:22;5.05;;;1.75;;
48963;SDS011;34776;48.180;16.420;2023-04-24T07:32:48;2.88;;;2.53;;
48963;SDS011;34776;48.180;16.420;2023-04-24T07:35:13;2.22;;;2.03;;
48963;SDS011;34776;48.180;16.420;2023-04-24T07:37:38;5.53;;;2.28;;
48963;SDS011;34776;48.180;16.420;2023-04-24T07:40:04;3.40;;;2.28;;
48963;SDS011;34776;48.180;16.420;2023-04-24T07:42:30;2.72;;;2.03;;
48963;SDS011;34776;48.180;16.420;2023-04-24T07:44:55;4.60;;;2.30;;
48963;SDS011;34776;48.180;16.420;2023-04-24T07:47:21;3.58;;;1.92;;
48963;SDS011;34776;48.180;16.420;2023-04-24T07:49:47;7.03;;;2.05;;
48963;SDS011;34776;48.180;16.420;2023-04-24T07:52:12;1.98;;;1.60;;
48963;SDS011;34776;48.180;16.420;2023-04-24T07:54:37;3.60;;;1.77;;
48963;SDS011;34776;48.180;16.420;2023-04-24T07:57:03;5.80;;;3.13;;
48963;SDS011;34776;48.180;16.420;2023-04-24T07:59:28;4.47;;;2.72;;
48963;SDS011;34776;48.180;16.420;2023-04-24T08:01:54;4.45;;;1.90;;
48963;SDS011;34776;48.180;16.420;2023-04-24T08:04:19;5.38;;;2.20;;
48963;SDS011;34776;48.180;16.420;2023-04-24T08:06:46;2.78;;;2.20;;
48963;SDS011;34776;48.180;16.420;2023-04-24T08:09:12;1.83;;;1.73;;
48963;SDS011;34776;48.180;16.420;2023-04-24T08:11:37;3.78;;;1.70;;
48963;SDS011;34776;48.180;16.420;2023-04-24T08:14:03;3.22;;;1.80;;
48963;SDS011;34776;48.180;16.420;2023-04-24T08:16:28;2.42;;;2.17;;
48963;SDS011;34776;48.180;16.420;2023-04-24T08:18:53;3.85;;;2.05;;
48963;SDS011;34776;48.180;16.420;2023-04-24T08:21:19;2.38;;;2.00;;
48963;SDS011;34776;48.180;16.420;2023-04-24T08:23:45;3.95;;;2.00;;
48963;SDS011;34776;48.180;16.420;2023-04-24T08:26:11;2.90;;;1.63;;
48963;SDS011;34776;48.180;16.420;2023-04-24T08:28:37;3.55;;;2.08;;
48963;SDS011;34776;48.180;16.420;2023-04-24T08:31:02;3.60;;;2.10;;
48963;SDS011;34776;48.180;16.420;2023-04-24T08:33:28;5.15;;;2.65;;
48963;SDS011;34776;48.180;16.420;2023-04-24T08:35:59;2.10;;;1.50;;
48963;SDS011;34776;48.180;16.420;2023-04-24T08:38:27;2.13;;;1.70;;
48963;SDS011;34776;48.180;16.420;2023-04-24T08:40:53;2.80;;;1.77;;
48963;SDS011;34776;48.180;16.420;2023-04-24T08:43:18;1.77;;;1.40;;
48963;SDS011;34776;48.180;16.420;2023-04-24T08:45:46;4.13;;;1.50;;
48963;SDS011;34776;48.180;16.420;2023-04-24T08:48:12;1.63;;;1.52;;
48963;SDS011;34776;48.180;16.420;2023-04-24T08:50:38;4.20;;;1.25;;
48963;SDS011;34776;48.180;16.420;2023-04-24T08:53:07;5.40;;;1.63;;
48963;SDS011;34776;48.180;16.420;2023-04-24T08:55:34;2.33;;;1.50;;
48963;SDS011;34776;48.180;16.420;2023-04-24T09:06:03;1.50;;;1.40;;
48963;SDS011;34776;48.180;16.420;2023-04-24T09:08:31;1.63;;;1.40;;
48963;SDS011;34776;48.180;16.420;2023-04-24T09:10:57;2.17;;;1.52;;
48963;SDS011;34776;48.180;16.420;2023-04-24T09:13:23;4.00;;;1.50;;
48963;SDS011;34776;48.180;16.420;2023-04-24T09:15:49;2.78;;;1.23;;
48963;SDS011;34776;48.180;16.420;2023-04-24T09:18:17;1.02;;;0.90;;
48963;SDS011;34776;48.180;16.420;2023-04-24T09:23:31;1.83;;;1.30;;
48963;SDS011;34776;48.180;16.420;2023-04-24T09:25:58;1.38;;;1.10;;
48963;SDS011;34776;48.180;16.420;2023-04-24T09:28:25;1.40;;;1.20;;
48963;SDS011;34776;48.180;16.420;2023-04-24T09:33:34;2.55;;;1.60;;
48963;SDS011;34776;48.180;16.420;2023-04-24T09:35:59;1.77;;;1.15;;
48963;SDS011;34776;48.180;16.420;2023-04-24T09:38:32;3.45;;;1.40;;
48963;SDS011;34776;48.180;16.420;2023-04-24T09:41:01;3.67;;;1.30;;
48963;SDS011;34776;48.180;16.420;2023-04-24T09:43:31;2.35;;;1.45;;
48963;SDS011;34776;48.180;16.420;2023-04-24T09:45:57;1.10;;;1.00;;
48963;SDS011;34776;48.180;16.420;2023-04-24T09:48:30;4.60;;;0.90;;
48963;SDS011;34776;48.180;16.420;2023-04-24T09:50:56;2.00;;;1.20;;
48963;SDS011;34776;48.180;16.420;2023-04-24T09:53:25;2.28;;;1.38;;
48963;SDS011;34776;48.180;16.420;2023-04-24T09:55:51;1.92;;;1.25;;
48963;SDS011;34776;48.180;16.420;2023-04-24T09:58:18;1.13;;;1.02;;
48963;SDS011;34776;48.180;16.420;2023-04-24T10:00:49;1.75;;;1.40;;
48963;SDS011;34776;48.180;16.420;2023-04-24T10:03:15;1.23;;;0.90;;
48963;SDS011;34776;48.180;16.420;2023-04-24T10:05:44;1.10;;;1.00;;
48963;SDS011;34776;48.180;16.420;2023-04-24T10:08:11;4.15;;;1.20;;
48963;SDS011;34776;48.180;16.420;2023-04-24T10:10:39;2.97;;;1.02;;
48963;SDS011;34776;48.180;16.420;2023-04-24T10:13:09;1.65;;;0.98;;
48963;SDS011;34776;48.180;16.420;2023-04-24T10:15:35;1.60;;;0.95;;
48963;SDS011;34776;48.180;16.420;2023-04-24T10:18:01;1.40;;;1.00;;
48963;SDS011;34776;48.180;16.420;2023-04-24T10:20:29;2.72;;;1.80;;
48963;SDS011;34776;48.180;16.420;2023-04-24T10:22:57;1.27;;;1.00;;
48963;SDS011;34776;48.180;16.420;2023-04-24T10:25:25;1.23;;;0.75;;
48963;SDS011;34776;48.180;16.420;2023-04-24T10:27:55;1.70;;;1.02;;
48963;SDS011;34776;48.180;16.420;2023-04-24T10:30:27;2.10;;;1.05;;
48963;SDS011;34776;48.180;16.420;2023-04-24T10:33:07;1.40;;;1.13;;
48963;SDS011;34776;48.180;16.420;2023-04-24T10:35:37;1.20;;;1.10;;
48963;SDS011;34776;48.180;16.420;2023-04-24T10:38:07;1.83;;;1.10;;
48963;SDS011;34776;48.180;16.420;2023-04-24T10:40:36;1.27;;;1.10;;
48963;SDS011;34776;48.180;16.420;2023-04-24T10:43:02;2.80;;;1.17;;
48963;SDS011;34776;48.180;16.420;2023-04-24T10:45:33;1.55;;;1.33;;
48963;SDS011;34776;48.180;16.420;2023-04-24T10:48:05;3.38;;;1.70;;
48963;SDS011;34776;48.180;16.420;2023-04-24T10:50:50;2.10;;;1.33;;
48963;SDS011;34776;48.180;16.420;2023-04-24T10:53:18;1.95;;;1.20;;
48963;SDS011;34776;48.180;16.420;2023-04-24T10:55:49;1.63;;;1.10;;
48963;SDS011;34776;48.180;16.420;2023-04-24T10:58:21;1.92;;;1.30;;
48963;SDS011;34776;48.180;16.420;2023-04-24T11:00:55;1.83;;;1.10;;
48963;SDS011;34776;48.180;16.420;2023-04-24T11:03:23;2.33;;;1.73;;
48963;SDS011;34776;48.180;16.420;2023-04-24T11:08:27;1.35;;;1.10;;
48963;SDS011;34776;48.180;16.420;2023-04-24T11:11:17;1.40;;;1.30;;
48963;SDS011;34776;48.180;16.420;2023-04-24T11:21:42;2.05;;;1.20;;
48963;SDS011;34776;48.180;16.420;2023-04-24T11:26:58;1.88;;;1.40;;
48963;SDS011;34776;48.180;16.420;2023-04-24T11:29:38;3.22;;;2.58;;
48963;SDS011;34776;48.180;16.420;2023-04-24T11:32:34;1.38;;;1.25;;
48963;SDS011;34776;48.180;16.420;2023-04-24T11:35:05;1.80;;;1.50;;
48963;SDS011;34776;48.180;16.420;2023-04-24T11:37:36;1.55;;;1.30;;
48963;SDS011;34776;48.180;16.420;2023-04-24T11:40:03;2.17;;;1.40;;
48963;SDS011;34776;48.180;16.420;2023-04-24T11:42:33;3.53;;;1.27;;
48963;SDS011;34776;48.180;16.420;2023-04-24T11:45:07;1.60;;;1.30;;
48963;SDS011;34776;48.180;16.420;2023-04-24T11:47:39;1.30;;;1.20;;
48963;SDS011;34776;48.180;16.420;2023-04-24T11:50:06;2.60;;;1.50;;
48963;SDS011;34776;48.180;16.420;2023-04-24T11:52:36;4.10;;;1.40;;
48963;SDS011;34776;48.180;16.420;2023-04-24T11:55:03;2.97;;;1.60;;
48963;SDS011;34776;48.180;16.420;2023-04-24T11:57:28;2.60;;;1.20;;
48963;SDS011;34776;48.180;16.420;2023-04-24T11:59:58;1.13;;;1.02;;
48963;SDS011;34776;48.180;16.420;2023-04-24T12:02:26;1.73;;;1.00;;
48963;SDS011;34776;48.180;16.420;2023-04-24T12:23:00;2.50;;;1.30;;
48963;SDS011;34776;48.180;16.420;2023-04-24T12:25:26;2.45;;;1.48;;
48963;SDS011;34776;48.180;16.420;2023-04-24T12:28:14;2.50;;;1.83;;
48963;SDS011;34776;48.180;16.420;2023-04-24T12:33:09;4.32;;;1.50;;
48963;SDS011;34776;48.180;16.420;2023-04-24T12:35:35;3.00;;;1.63;;
48963;SDS011;34776;48.180;16.420;2023-04-24T12:38:10;1.92;;;1.70;;
48963;SDS011;34776;48.180;16.420;2023-04-24T12:40:38;1.67;;;1.40;;
48963;SDS011;34776;48.180;16.420;2023-04-24T12:43:12;12.63;;;8.35;;
48963;SDS011;34776;48.180;16.420;2023-04-24T12:45:39;4.00;;;3.10;;
48963;SDS011;34776;48.180;16.420;2023-04-24T12:48:04;2.08;;;1.83;;
48963;SDS011;34776;48.180;16.420;2023-04-24T12:50:30;1.42;;;1.30;;
48963;SDS011;34776;48.180;16.420;2023-04-24T12:52:55;1.83;;;1.33;;
48963;SDS011;34776;48.180;16.420;2023-04-24T12:55:21;2.00;;;1.48;;
48963;SDS011;34776;48.180;16.420;2023-04-24T12:57:46;1.95;;;1.23;;
48963;SDS011;34776;48.180;16.420;2023-04-24T13:00:11;1.65;;;1.27;;
48963;SDS011;34776;48.180;16.420;2023-04-24T13:02:37;2.13;;;1.45;;
48963;SDS011;34776;48.180;16.420;2023-04-24T13:05:03;1.50;;;1.30;;
48963;SDS011;34776;48.180;16.420;2023-04-24T13:07:29;7.35;;;1.88;;
48963;SDS011;34776;48.180;16.420;2023-04-24T13:09:55;3.72;;;1.80;;
48963;SDS011;34776;48.180;16.420;2023-04-24T13:12:22;2.90;;;1.30;;
48963;SDS011;34776;48.180;16.420;2023-04-24T13:14:49;5.70;;;1.58;;
48963;SDS011;34776;48.180;16.420;2023-04-24T13:17:14;2.60;;;1.58;;
48963;SDS011;34776;48.180;16.420;2023-04-24T13:19:40;3.38;;;2.90;;
48963;SDS011;34776;48.180;16.420;2023-04-24T13:22:09;5.00;;;4.20;;
48963;SDS011;34776;48.180;16.420;2023-04-24T13:24:37;3.78;;;2.65;;
48963;SDS011;34776;48.180;16.420;2023-04-24T13:27:04;2.22;;;1.95;;
48963;SDS011;34776;48.180;16.420;2023-04-24T13:29:30;3.22;;;2.15;;
48963;SDS011;34776;48.180;16.420;2023-04-24T13:31:55;3.75;;;1.70;;
48963;SDS011;34776;48.180;16.420;2023-04-24T13:34:21;4.85;;;1.73;;
48963;SDS011;34776;48.180;16.420;2023-04-24T13:36:49;1.95;;;1.65;;
48963;SDS011;34776;48.180;16.420;2023-04-24T13:39:25;1.60;;;1.30;;
48963;SDS011;34776;48.180;16.420;2023-04-24T13:41:51;2.17;;;1.85;;
48963;SDS011;34776;48.180;16.420;2023-04-24T13:44:17;5.00;;;1.85;;
48963;SDS011;34776;48.180;16.420;2023-04-24T13:46:44;4.18;;;2.25;;
48963;SDS011;34776;48.180;16.420;2023-04-24T13:49:11;3.25;;;1.83;;
48963;SDS011;34776;48.180;16.420;2023-04-24T13:51:38;4.90;;;2.28;;
48963;SDS011;34776;48.180;16.420;2023-04-24T13:54:05;3.65;;;2.40;;
48963;SDS011;34776;48.180;16.420;2023-04-24T14:02:36;3.05;;;1.90;;
48963;SDS011;34776;48.180;16.420;2023-04-24T14:07:37;8.40;;;4.82;;
48963;SDS011;34776;48.180;16.420;2023-04-24T14:10:05;3.50;;;3.20;;
48963;SDS011;34776;48.180;16.420;2023-04-24T14:15:06;3.15;;;1.85;;
48963;SDS011;34776;48.180;16.420;2023-04-24T14:17:33;1.85;;;1.40;;
48963;SDS011;34776;48.180;16.420;2023-04-24T14:19:59;2.22;;;1.60;;
48963;SDS011;34776;48.180;16.420;2023-04-24T14:22:25;3.53;;;1.70;;
48963;SDS011;34776;48.180;16.420;2023-04-24T14:24:50;2.92;;;1.80;;
48963;SDS011;34776;48.180;16.420;2023-04-24T14:27:16;39.97;;;5.32;;
48963;SDS011;34776;48.180;16.420;2023-04-24T14:29:41;12.43;;;2.80;;
48963;SDS011;34776;48.180;16.420;2023-04-24T14:32:07;4.80;;;1.95;;
48963;SDS011;34776;48.180;16.420;2023-04-24T14:37:03;1.90;;;1.55;;
48963;SDS011;34776;48.180;16.420;2023-04-24T14:42:04;4.45;;;2.22;;
48963;SDS011;34776;48.180;16.420;2023-04-24T14:44:29;5.95;;;2.60;;
48963;SDS011;34776;48.180;16.420;2023-04-24T14:46:54;2.92;;;2.15;;
48963;SDS011;34776;48.180;16.420;2023-04-24T14:49:20;3.28;;;2.03;;
48963;SDS011;34776;48.180;16.420;2023-04-24T14:51:45;2.75;;;1.92;;
48963;SDS011;34776;48.180;16.420;2023-04-24T14:54:10;4.65;;;1.88;;
48963;SDS011;34776;48.180;16.420;2023-04-24T14:56:36;2.85;;;1.42;;
48963;SDS011;34776;48.180;16.420;2023-04-24T14:59:01;1.98;;;1.40;;
48963;SDS011;34776;48.180;16.420;2023-04-24T15:01:27;1.58;;;1.40;;
48963;SDS011;34776;48.180;16.420;2023-04-24T15:03:52;2.35;;;1.30;;
48963;SDS011;34776;48.180;16.420;2023-04-24T15:06:18;3.08;;;1.58;;
48963;SDS011;34776;48.180;16.420;2023-04-24T15:08:43;2.50;;;1.40;;
48963;SDS011;34776;48.180;16.420;2023-04-24T15:11:09;5.15;;;4.10;;
48963;SDS011;34776;48.180;16.420;2023-04-24T15:16:10;2.20;;;1.80;;
48963;SDS011;34776;48.180;16.420;2023-04-24T15:18:36;2.45;;;1.75;;
48963;SDS011;34776;48.180;16.420;2023-04-24T15:21:01;2.88;;;1.63;;
48963;SDS011;34776;48.180;16.420;2023-04-24T15:23:27;3.45;;;1.95;;
48963;SDS011;34776;48.180;16.420;2023-04-24T15:25:52;2.97;;;2.58;;
48963;SDS011;34776;48.180;16.420;2023-04-24T15:28:18;3.53;;;2.45;;
48963;SDS011;34776;48.180;16.420;2023-04-24T15:30:43;3.25;;;1.90;;
48963;SDS011;34776;48.180;16.420;2023-04-24T15:33:09;2.38;;;1.77;;
48963;SDS011;34776;48.180;16.420;2023-04-24T15:35:34;1.65;;;1.30;;
48963;SDS011;34776;48.180;16.420;2023-04-24T15:38:00;4.53;;;1.70;;
48963;SDS011;34776;48.180;16.420;2023-04-24T15:40:27;2.40;;;1.77;;